sensor_id;sensor_type;location;lat;lon;timestamp;pressure;altitude;pressure_sealevel;temperature;humidity
61408;BME280;47274;43.054;25.146;2023-05-19T00:01:10;95674.84;;;10.81;100.00
61408;BME280;47274;43.054;25.146;2023-05-19T00:06:21;95675.47;;;10.65;100.00
61408;BME280;47274;43.054;25.146;2023-05-19T00:08:48;95705.16;;;10.78;100.00
61408;BME280;47274;43.054;25.146;2023-05-19T00:11:14;95700.63;;;10.62;100.00
61408;BME280;47274;43.054;25.146;2023-05-19T00:13:40;95706.44;;;10.64;100.00
61408;BME280;47274;43.054;25.146;2023-05-19T00:16:06;95683.28;;;10.46;100.00
61408;BME280;47274;43.054;25.146;2023-05-19T00:18:32;95692.31;;;10.50;100.00
61408;BME280;47274;43.054;25.146;2023-05-19T00:20:58;95676.00;;;10.41;100.00
61408;BME280;47274;43.054;25.146;2023-05-19T00:23:24;95686.38;;;10.50;100.00
61408;BME280;47274;43.054;25.146;2023-05-19T00:25:50;95701.41;;;10.62;100.00
61408;BME280;47274;43.054;25.146;2023-05-19T00:28:16;95661.78;;;10.47;100.00
61408;BME280;47274;43.054;25.146;2023-05-19T00:30:42;95672.81;;;10.57;100.00
61408;BME280;47274;43.054;25.146;2023-05-19T00:33:08;95671.19;;;10.56;100.00
61408;BME280;47274;43.054;25.146;2023-05-19T00:35:33;95644.56;;;10.39;100.00
61408;BME280;47274;43.054;25.146;2023-05-19T00:37:59;95666.38;;;10.53;100.00
61408;BME280;47274;43.054;25.146;2023-05-19T00:40:25;95666.38;;;10.53;100.00
61408;BME280;47274;43.054;25.146;2023-05-19T00:42:51;95671.38;;;10.45;100.00
61408;BME280;47274;43.054;25.146;2023-05-19T00:45:17;95684.16;;;10.55;100.00
61408;BME280;47274;43.054;25.146;2023-05-19T00:47:43;95673.94;;;10.45;100.00
61408;BME280;47274;43.054;25.146;2023-05-19T00:50:09;95680.72;;;10.46;100.00
61408;BME280;47274;43.054;25.146;2023-05-19T00:52:35;95676.94;;;10.40;100.00
61408;BME280;47274;43.054;25.146;2023-05-19T00:55:01;95671.00;;;10.40;100.00
61408;BME280;47274;43.054;25.146;2023-05-19T00:57:27;95687.44;;;10.47;100.00
61408;BME280;47274;43.054;25.146;2023-05-19T00:59:53;95695.53;;;10.52;100.00
61408;BME280;47274;43.054;25.146;2023-05-19T01:02:19;95662.78;;;10.36;100.00
61408;BME280;47274;43.054;25.146;2023-05-19T01:04:46;95651.84;;;10.34;100.00
61408;BME280;47274;43.054;25.146;2023-05-19T01:07:11;95669.91;;;10.42;100.00
61408;BME280;47274;43.054;25.146;2023-05-19T01:09:38;95652.66;;;10.35;100.00
61408;BME280;47274;43.054;25.146;2023-05-19T01:12:07;95679.03;;;10.55;100.00
61408;BME280;47274;43.054;25.146;2023-05-19T01:14:33;95684.00;;;10.56;100.00
61408;BME280;47274;43.054;25.146;2023-05-19T01:26:19;95683.28;;;10.46;100.00
61408;BME280;47274;43.054;25.146;2023-05-19T01:29:06;95653.38;;;10.27;100.00
61408;BME280;47274;43.054;25.146;2023-05-19T01:31:36;95669.97;;;10.33;100.00
61408;BME280;47274;43.054;25.146;2023-05-19T01:34:05;95653.78;;;10.23;100.00
61408;BME280;47274;43.054;25.146;2023-05-19T01:36:32;95667.00;;;10.28;100.00
61408;BME280;47274;43.054;25.146;2023-05-19T01:38:59;95675.09;;;10.33;100.00
61408;BME280;47274;43.054;25.146;2023-05-19T01:41:26;95677.78;;;10.31;100.00
61408;BME280;47274;43.054;25.146;2023-05-19T01:43:53;95676.84;;;10.23;100.00
61408;BME280;47274;43.054;25.146;2023-05-19T01:46:20;95684.66;;;10.21;100.00
61408;BME280;47274;43.054;25.146;2023-05-19T01:48:47;95661.91;;;10.08;100.00
61408;BME280;47274;43.054;25.146;2023-05-19T01:51:12;95688.56;;;10.25;100.00
61408;BME280;47274;43.054;25.146;2023-05-19T01:53:41;95692.88;;;10.25;100.00
61408;BME280;47274;43.054;25.146;2023-05-19T01:56:07;95676.06;;;10.12;100.00
61408;BME280;47274;43.054;25.146;2023-05-19T01:58:45;95692.81;;;10.26;100.00
61408;BME280;47274;43.054;25.146;2023-05-19T02:01:36;95691.84;;;10.27;100.00
61408;BME280;47274;43.054;25.146;2023-05-19T02:04:54;95696.53;;;10.22;100.00
61408;BME280;47274;43.054;25.146;2023-05-19T02:07:40;95694.94;;;10.21;100.00
61408;BME280;47274;43.054;25.146;2023-05-19T02:10:20;95706.25;;;10.18;100.00
61408;BME280;47274;43.054;25.146;2023-05-19T02:12:52;95709.13;;;10.15;100.00
61408;BME280;47274;43.054;25.146;2023-05-19T02:15:29;95705.09;;;10.13;100.00
61408;BME280;47274;43.054;25.146;2023-05-19T02:18:00;95695.09;;;10.10;100.00
61408;BME280;47274;43.054;25.146;2023-05-19T02:20:29;95688.22;;;10.01;100.00
61408;BME280;47274;43.054;25.146;2023-05-19T02:22:55;95701.72;;;10.03;100.00
61408;BME280;47274;43.054;25.146;2023-05-19T02:25:22;95686.63;;;9.90;100.00
61408;BME280;47274;43.054;25.146;2023-05-19T02:27:49;95707.13;;;10.00;100.00
61408;BME280;47274;43.054;25.146;2023-05-19T02:30:15;95699.88;;;9.95;100.00
61408;BME280;47274;43.054;25.146;2023-05-19T02:32:41;95702.97;;;9.89;100.00
61408;BME280;47274;43.054;25.146;2023-05-19T02:35:11;95694.75;;;9.85;100.00
61408;BME280;47274;43.054;25.146;2023-05-19T02:37:38;95712.28;;;9.90;100.00
61408;BME280;47274;43.054;25.146;2023-05-19T02:40:05;95722.78;;;9.96;100.00
61408;BME280;47274;43.054;25.146;2023-05-19T02:42:31;95713.34;;;9.87;100.00
61408;BME280;47274;43.054;25.146;2023-05-19T02:44:56;95728.06;;;9.95;100.00
61408;BME280;47274;43.054;25.146;2023-05-19T02:47:22;95724.00;;;9.92;100.00
61408;BME280;47274;43.054;25.146;2023-05-19T02:49:48;95727.66;;;9.90;100.00
61408;BME280;47274;43.054;25.146;2023-05-19T02:52:14;95732.34;;;9.94;100.00
61408;BME280;47274;43.054;25.146;2023-05-19T02:54:40;95715.13;;;9.77;100.00
61408;BME280;47274;43.054;25.146;2023-05-19T02:57:06;95736.94;;;9.91;100.00
61408;BME280;47274;43.054;25.146;2023-05-19T02:59:32;95749.66;;;10.02;100.00
61408;BME280;47274;43.054;25.146;2023-05-19T03:01:59;95752.06;;;10.04;100.00
61408;BME280;47274;43.054;25.146;2023-05-19T03:04:26;95752.06;;;10.04;100.00
61408;BME280;47274;43.054;25.146;2023-05-19T03:06:52;95754.78;;;10.02;100.00
61408;BME280;47274;43.054;25.146;2023-05-19T03:09:22;95747.47;;;9.97;100.00
61408;BME280;47274;43.054;25.146;2023-05-19T03:11:48;95764.59;;;10.07;100.00
61408;BME280;47274;43.054;25.146;2023-05-19T03:14:13;95757.44;;;10.10;100.00
61408;BME280;47274;43.054;25.146;2023-05-19T03:16:40;95759.84;;;10.12;100.00
61408;BME280;47274;43.054;25.146;2023-05-19T03:19:07;95749.50;;;10.04;100.00
61408;BME280;47274;43.054;25.146;2023-05-19T03:21:33;95745.31;;;10.03;100.00
61408;BME280;47274;43.054;25.146;2023-05-19T03:24:02;95758.94;;;10.13;100.00
61408;BME280;47274;43.054;25.146;2023-05-19T03:26:28;95741.25;;;10.10;100.00
61408;BME280;47274;43.054;25.146;2023-05-19T03:28:55;95748.41;;;10.26;100.00
61408;BME280;47274;43.054;25.146;2023-05-19T03:31:22;95755.69;;;10.20;100.00
61408;BME280;47274;43.054;25.146;2023-05-19T03:33:48;95748.81;;;10.11;100.00
61408;BME280;47274;43.054;25.146;2023-05-19T03:36:13;95735.06;;;10.03;100.00
61408;BME280;47274;43.054;25.146;2023-05-19T03:38:39;95763.53;;;10.19;100.00
61408;BME280;47274;43.054;25.146;2023-05-19T03:41:05;95759.31;;;10.08;100.00
61408;BME280;47274;43.054;25.146;2023-05-19T03:43:31;95773.91;;;10.17;100.00
61408;BME280;47274;43.054;25.146;2023-05-19T03:46:01;95772.81;;;10.20;100.00
61408;BME280;47274;43.054;25.146;2023-05-19T03:48:45;95774.44;;;10.21;100.00
61408;BME280;47274;43.054;25.146;2023-05-19T03:51:31;95771.88;;;10.31;100.00
61408;BME280;47274;43.054;25.146;2023-05-19T03:54:05;95763.91;;;10.34;100.00
61408;BME280;47274;43.054;25.146;2023-05-19T03:56:31;95775.34;;;10.49;100.00
61408;BME280;47274;43.054;25.146;2023-05-19T03:58:57;95782.47;;;10.65;100.00
61408;BME280;47274;43.054;25.146;2023-05-19T04:01:23;95748.75;;;10.50;100.00
61408;BME280;47274;43.054;25.146;2023-05-19T04:03:49;95779.75;;;10.66;100.00
61408;BME280;47274;43.054;25.146;2023-05-19T04:06:15;95787.16;;;10.70;100.00
61408;BME280;47274;43.054;25.146;2023-05-19T04:08:41;95771.66;;;10.61;100.00
61408;BME280;47274;43.054;25.146;2023-05-19T04:11:08;95792.69;;;10.75;100.00
61408;BME280;47274;43.054;25.146;2023-05-19T04:13:34;95778.13;;;10.65;100.00
61408;BME280;47274;43.054;25.146;2023-05-19T04:16:00;95779.06;;;10.74;100.00
61408;BME280;47274;43.054;25.146;2023-05-19T04:18:26;95793.31;;;10.86;100.00
61408;BME280;47274;43.054;25.146;2023-05-19T04:20:52;95788.34;;;10.85;100.00
61408;BME280;47274;43.054;25.146;2023-05-19T04:23:18;95795.47;;;10.91;100.00
61408;BME280;47274;43.054;25.146;2023-05-19T04:25:44;95773.94;;;11.02;100.00
61408;BME280;47274;43.054;25.146;2023-05-19T04:28:13;95789.41;;;11.37;100.00
61408;BME280;47274;43.054;25.146;2023-05-19T04:30:39;95770.50;;;11.38;100.00
61408;BME280;47274;43.054;25.146;2023-05-19T04:33:07;95799.59;;;11.75;100.00
61408;BME280;47274;43.054;25.146;2023-05-19T04:35:33;95805.63;;;11.83;100.00
61408;BME280;47274;43.054;25.146;2023-05-19T04:38:00;95773.16;;;11.65;100.00
61408;BME280;47274;43.054;25.146;2023-05-19T04:40:29;95794.91;;;11.88;100.00
61408;BME280;47274;43.054;25.146;2023-05-19T04:42:56;95780.97;;;11.91;100.00
61408;BME280;47274;43.054;25.146;2023-05-19T04:45:23;95783.38;;;11.92;100.00
61408;BME280;47274;43.054;25.146;2023-05-19T04:47:55;95802.50;;;12.07;100.00
61408;BME280;47274;43.054;25.146;2023-05-19T04:50:23;95796.03;;;12.03;100.00
61408;BME280;47274;43.054;25.146;2023-05-19T04:52:49;95816.44;;;12.23;100.00
61408;BME280;47274;43.054;25.146;2023-05-19T04:55:15;95794.81;;;12.16;100.00
61408;BME280;47274;43.054;25.146;2023-05-19T04:57:42;95784.31;;;12.09;100.00
61408;BME280;47274;43.054;25.146;2023-05-19T05:00:08;95793.34;;;12.13;100.00
61408;BME280;47274;43.054;25.146;2023-05-19T05:02:50;95819.47;;;12.44;100.00
61408;BME280;47274;43.054;25.146;2023-05-19T05:05:18;95817.69;;;12.63;100.00
61408;BME280;47274;43.054;25.146;2023-05-19T05:07:44;95818.44;;;12.55;100.00
61408;BME280;47274;43.054;25.146;2023-05-19T05:10:10;95818.38;;;12.73;100.00
61408;BME280;47274;43.054;25.146;2023-05-19T05:12:36;95816.50;;;12.83;100.00
61408;BME280;47274;43.054;25.146;2023-05-19T05:15:03;95813.97;;;12.91;100.00
61408;BME280;47274;43.054;25.146;2023-05-19T05:17:29;95818.88;;;13.02;100.00
61408;BME280;47274;43.054;25.146;2023-05-19T05:19:55;95803.66;;;12.91;100.00
61408;BME280;47274;43.054;25.146;2023-05-19T05:22:21;95804.47;;;12.92;99.16
61408;BME280;47274;43.054;25.146;2023-05-19T05:24:47;95833.09;;;13.15;99.02
61408;BME280;47274;43.054;25.146;2023-05-19T05:27:13;95812.00;;;13.19;98.81
61408;BME280;47274;43.054;25.146;2023-05-19T05:29:39;95814.25;;;13.22;98.55
61408;BME280;47274;43.054;25.146;2023-05-19T05:32:06;95808.28;;;13.14;97.20
61408;BME280;47274;43.054;25.146;2023-05-19T05:34:33;95818.59;;;13.56;98.48
61408;BME280;47274;43.054;25.146;2023-05-19T05:37:00;95812.34;;;13.67;97.39
61408;BME280;47274;43.054;25.146;2023-05-19T05:39:26;95839.00;;;13.92;94.53
61408;BME280;47274;43.054;25.146;2023-05-19T05:41:53;95830.59;;;13.90;96.47
61408;BME280;47274;43.054;25.146;2023-05-19T05:44:19;95813.69;;;13.95;94.77
61408;BME280;47274;43.054;25.146;2023-05-19T05:46:45;95823.19;;;14.11;93.96
61408;BME280;47274;43.054;25.146;2023-05-19T05:49:11;95815.47;;;14.03;93.71
61408;BME280;47274;43.054;25.146;2023-05-19T05:51:41;95832.41;;;14.46;94.96
61408;BME280;47274;43.054;25.146;2023-05-19T05:54:10;95843.69;;;14.78;93.20
61408;BME280;47274;43.054;25.146;2023-05-19T05:56:42;95832.03;;;14.90;91.24
61408;BME280;47274;43.054;25.146;2023-05-19T05:59:09;95843.41;;;15.21;90.10
61408;BME280;47274;43.054;25.146;2023-05-19T06:01:34;95850.34;;;15.28;90.07
61408;BME280;47274;43.054;25.146;2023-05-19T06:04:03;95832.59;;;15.17;88.58
61408;BME280;47274;43.054;25.146;2023-05-19T06:06:30;95830.19;;;15.07;88.65
61408;BME280;47274;43.054;25.146;2023-05-19T06:08:56;95851.84;;;15.54;88.76
61408;BME280;47274;43.054;25.146;2023-05-19T06:11:22;95824.91;;;15.40;87.75
61408;BME280;47274;43.054;25.146;2023-05-19T06:13:50;95829.41;;;15.46;88.80
61408;BME280;47274;43.054;25.146;2023-05-19T06:16:34;95847.84;;;15.82;87.14
61408;BME280;47274;43.054;25.146;2023-05-19T06:19:00;95862.72;;;16.11;86.61
61408;BME280;47274;43.054;25.146;2023-05-19T06:21:25;95837.78;;;16.33;86.33
61408;BME280;47274;43.054;25.146;2023-05-19T06:23:51;95839.19;;;16.21;83.96
61408;BME280;47274;43.054;25.146;2023-05-19T06:26:18;95842.22;;;16.48;85.96
61408;BME280;47274;43.054;25.146;2023-05-19T06:28:44;95847.69;;;16.68;83.46
61408;BME280;47274;43.054;25.146;2023-05-19T06:31:10;95844.19;;;16.46;81.88
61408;BME280;47274;43.054;25.146;2023-05-19T06:33:54;95853.72;;;15.99;81.22
61408;BME280;47274;43.054;25.146;2023-05-19T06:36:20;95871.19;;;15.74;84.51
61408;BME280;47274;43.054;25.146;2023-05-19T06:38:47;95870.44;;;15.57;85.39
61408;BME280;47274;43.054;25.146;2023-05-19T06:41:12;95871.53;;;15.71;87.12
61408;BME280;47274;43.054;25.146;2023-05-19T06:43:39;95868.28;;;16.23;85.31
61408;BME280;47274;43.054;25.146;2023-05-19T06:46:05;95870.06;;;16.69;84.07
61408;BME280;47274;43.054;25.146;2023-05-19T06:48:32;95867.44;;;17.36;82.59
61408;BME280;47274;43.054;25.146;2023-05-19T06:50:58;95849.88;;;17.83;80.97
61408;BME280;47274;43.054;25.146;2023-05-19T06:53:25;95875.91;;;18.11;80.41
61408;BME280;47274;43.054;25.146;2023-05-19T06:55:52;95876.09;;;18.52;76.63
61408;BME280;47274;43.054;25.146;2023-05-19T06:58:20;95880.75;;;18.78;79.14
61408;BME280;47274;43.054;25.146;2023-05-19T07:00:47;95867.38;;;19.09;74.86
61408;BME280;47274;43.054;25.146;2023-05-19T07:03:15;95868.69;;;18.49;75.71
61408;BME280;47274;43.054;25.146;2023-05-19T07:05:40;95881.13;;;18.75;76.46
61408;BME280;47274;43.054;25.146;2023-05-19T07:08:06;95880.84;;;18.91;74.35
61408;BME280;47274;43.054;25.146;2023-05-19T07:10:34;95849.31;;;18.52;75.76
61408;BME280;47274;43.054;25.146;2023-05-19T07:13:01;95877.41;;;18.20;75.31
61408;BME280;47274;43.054;25.146;2023-05-19T07:15:31;95879.19;;;18.62;77.91
61408;BME280;47274;43.054;25.146;2023-05-19T07:17:57;95871.41;;;18.41;77.94
61408;BME280;47274;43.054;25.146;2023-05-19T07:20:24;95878.53;;;18.75;78.04
61408;BME280;47274;43.054;25.146;2023-05-19T07:22:49;95849.38;;;18.58;75.76
61408;BME280;47274;43.054;25.146;2023-05-19T07:25:15;95872.34;;;19.04;74.85
61408;BME280;47274;43.054;25.146;2023-05-19T07:27:45;95868.63;;;19.61;74.05
61408;BME280;47274;43.054;25.146;2023-05-19T07:30:11;95868.22;;;20.06;67.05
61408;BME280;47274;43.054;25.146;2023-05-19T07:32:37;95866.25;;;20.28;70.17
61408;BME280;47274;43.054;25.146;2023-05-19T07:35:04;95858.88;;;20.65;70.24
61408;BME280;47274;43.054;25.146;2023-05-19T07:37:30;95850.06;;;20.86;69.03
61408;BME280;47274;43.054;25.146;2023-05-19T07:39:56;95869.06;;;21.19;65.01
61408;BME280;47274;43.054;25.146;2023-05-19T07:42:22;95861.03;;;21.21;66.05
61408;BME280;47274;43.054;25.146;2023-05-19T07:44:47;95875.19;;;21.65;67.71
61408;BME280;47274;43.054;25.146;2023-05-19T07:47:13;95868.81;;;21.54;67.02
61408;BME280;47274;43.054;25.146;2023-05-19T07:49:39;95865.91;;;20.91;67.32
61408;BME280;47274;43.054;25.146;2023-05-19T07:52:05;95872.94;;;20.90;69.71
61408;BME280;47274;43.054;25.146;2023-05-19T07:54:31;95871.72;;;21.06;66.00
61408;BME280;47274;43.054;25.146;2023-05-19T07:56:56;95849.81;;;21.14;66.77
61408;BME280;47274;43.054;25.146;2023-05-19T07:59:22;95857.69;;;20.74;66.32
61408;BME280;47274;43.054;25.146;2023-05-19T08:01:48;95859.88;;;20.50;68.90
61408;BME280;47274;43.054;25.146;2023-05-19T08:04:14;95854.50;;;20.58;67.70
61408;BME280;47274;43.054;25.146;2023-05-19T08:06:40;95875.94;;;20.87;67.88
61408;BME280;47274;43.054;25.146;2023-05-19T08:09:07;95862.81;;;21.34;67.00
61408;BME280;47274;43.054;25.146;2023-05-19T08:11:32;95863.41;;;21.49;64.26
61408;BME280;47274;43.054;25.146;2023-05-19T08:13:58;95863.72;;;21.66;65.72
61408;BME280;47274;43.054;25.146;2023-05-19T08:16:24;95866.59;;;22.03;64.13
61408;BME280;47274;43.054;25.146;2023-05-19T08:18:50;95878.13;;;22.27;64.79
61408;BME280;47274;43.054;25.146;2023-05-19T08:21:16;95870.22;;;22.40;62.19
61408;BME280;47274;43.054;25.146;2023-05-19T08:23:41;95880.72;;;22.33;61.92
61408;BME280;47274;43.054;25.146;2023-05-19T08:26:07;95890.50;;;22.44;62.26
61408;BME280;47274;43.054;25.146;2023-05-19T08:28:33;95885.28;;;22.69;60.29
61408;BME280;47274;43.054;25.146;2023-05-19T08:30:59;95879.66;;;22.66;61.51
61408;BME280;47274;43.054;25.146;2023-05-19T08:33:25;95896.97;;;22.67;59.82
61408;BME280;47274;43.054;25.146;2023-05-19T08:35:51;95891.81;;;23.10;57.20
61408;BME280;47274;43.054;25.146;2023-05-19T08:38:17;95885.56;;;23.30;53.16
61408;BME280;47274;43.054;25.146;2023-05-19T08:40:45;95885.28;;;22.69;60.05
61408;BME280;47274;43.054;25.146;2023-05-19T08:43:12;95887.50;;;22.98;60.97
61408;BME280;47274;43.054;25.146;2023-05-19T08:45:43;95903.25;;;23.16;54.88
61408;BME280;47274;43.054;25.146;2023-05-19T08:48:11;95888.63;;;22.77;57.79
61408;BME280;47274;43.054;25.146;2023-05-19T08:50:39;95881.69;;;23.14;58.42
61408;BME280;47274;43.054;25.146;2023-05-19T08:58:11;95894.53;;;23.59;60.92
61408;BME280;47274;43.054;25.146;2023-05-19T09:00:37;95897.31;;;22.77;59.82
61408;BME280;47274;43.054;25.146;2023-05-19T09:03:03;95895.72;;;22.44;57.93
61408;BME280;47274;43.054;25.146;2023-05-19T09:05:29;95901.22;;;22.93;60.88
61408;BME280;47274;43.054;25.146;2023-05-19T09:07:56;95879.00;;;22.77;60.31
61408;BME280;47274;43.054;25.146;2023-05-19T09:10:22;95903.59;;;22.69;58.48
61408;BME280;47274;43.054;25.146;2023-05-19T09:12:48;95892.50;;;22.74;58.59
61408;BME280;47274;43.054;25.146;2023-05-19T09:15:16;95907.06;;;22.88;57.54
61408;BME280;47274;43.054;25.146;2023-05-19T09:17:44;95894.28;;;23.05;60.67
61408;BME280;47274;43.054;25.146;2023-05-19T09:20:12;95886.06;;;23.02;59.81
61408;BME280;47274;43.054;25.146;2023-05-19T09:22:45;95880.88;;;23.75;57.98
61408;BME280;47274;43.054;25.146;2023-05-19T09:25:21;95866.56;;;24.08;55.42
61408;BME280;47274;43.054;25.146;2023-05-19T09:27:48;95895.34;;;24.26;56.72
61408;BME280;47274;43.054;25.146;2023-05-19T09:30:15;95884.31;;;24.06;56.22
61408;BME280;47274;43.054;25.146;2023-05-19T09:32:41;95870.66;;;23.85;57.89
61408;BME280;47274;43.054;25.146;2023-05-19T09:35:08;95868.63;;;23.51;58.71
61408;BME280;47274;43.054;25.146;2023-05-19T09:37:33;95885.09;;;24.25;58.48
61408;BME280;47274;43.054;25.146;2023-05-19T09:40:00;95881.13;;;24.76;56.83
61408;BME280;47274;43.054;25.146;2023-05-19T09:42:26;95891.88;;;24.86;55.23
61408;BME280;47274;43.054;25.146;2023-05-19T09:45:01;95876.22;;;23.77;51.72
61408;BME280;47274;43.054;25.146;2023-05-19T09:47:34;95877.47;;;24.05;55.36
61408;BME280;47274;43.054;25.146;2023-05-19T09:50:07;95873.38;;;24.39;52.25
61408;BME280;47274;43.054;25.146;2023-05-19T09:52:37;95875.94;;;24.46;55.66
61408;BME280;47274;43.054;25.146;2023-05-19T09:55:04;95886.72;;;24.91;52.56
61408;BME280;47274;43.054;25.146;2023-05-19T09:57:35;95882.75;;;25.12;52.46
61408;BME280;47274;43.054;25.146;2023-05-19T10:00:08;95883.78;;;25.11;51.59
61408;BME280;47274;43.054;25.146;2023-05-19T10:02:43;95871.97;;;24.78;50.95
61408;BME280;47274;43.054;25.146;2023-05-19T10:05:14;95887.13;;;24.65;52.74
61408;BME280;47274;43.054;25.146;2023-05-19T10:07:49;95883.38;;;24.30;55.00
61408;BME280;47274;43.054;25.146;2023-05-19T10:10:16;95886.25;;;24.94;54.93
61408;BME280;47274;43.054;25.146;2023-05-19T10:12:42;95888.47;;;25.21;52.79
61408;BME280;47274;43.054;25.146;2023-05-19T10:15:10;95859.00;;;25.07;51.54
61408;BME280;47274;43.054;25.146;2023-05-19T10:17:40;95877.94;;;25.33;50.78
61408;BME280;47274;43.054;25.146;2023-05-19T10:20:08;95882.28;;;25.39;54.57
61408;BME280;47274;43.054;25.146;2023-05-19T10:22:36;95870.59;;;25.58;52.84
61408;BME280;47274;43.054;25.146;2023-05-19T10:25:03;95869.38;;;25.37;50.33
61408;BME280;47274;43.054;25.146;2023-05-19T10:27:30;95861.16;;;24.87;50.58
61408;BME280;47274;43.054;25.146;2023-05-19T10:30:01;95866.97;;;24.89;48.71
61408;BME280;47274;43.054;25.146;2023-05-19T10:32:30;95859.22;;;24.94;52.39
61408;BME280;47274;43.054;25.146;2023-05-19T10:38:11;95866.97;;;25.36;52.79
61408;BME280;47274;43.054;25.146;2023-05-19T10:43:36;95861.16;;;24.98;50.37
61408;BME280;47274;43.054;25.146;2023-05-19T10:46:05;95863.78;;;25.10;51.07
61408;BME280;47274;43.054;25.146;2023-05-19T10:48:34;95856.81;;;24.92;51.22
61408;BME280;47274;43.054;25.146;2023-05-19T10:51:01;95863.47;;;25.18;52.04
61408;BME280;47274;43.054;25.146;2023-05-19T10:53:33;95853.63;;;25.25;49.73
61408;BME280;47274;43.054;25.146;2023-05-19T10:56:00;95859.84;;;24.54;52.83
61408;BME280;47274;43.054;25.146;2023-05-19T11:01:14;95860.72;;;25.25;49.40
61408;BME280;47274;43.054;25.146;2023-05-19T11:03:53;95856.38;;;25.31;54.63
61408;BME280;47274;43.054;25.146;2023-05-19T11:08:57;95853.88;;;25.12;49.81
61408;BME280;47274;43.054;25.146;2023-05-19T11:11:25;95849.78;;;25.16;52.40
61408;BME280;47274;43.054;25.146;2023-05-19T11:13:53;95848.41;;;25.14;53.56
61408;BME280;47274;43.054;25.146;2023-05-19T11:16:28;95832.69;;;25.42;50.86
61408;BME280;47274;43.054;25.146;2023-05-19T11:18:59;95846.31;;;25.04;51.10
61408;BME280;47274;43.054;25.146;2023-05-19T11:21:47;95844.56;;;24.51;54.49
61408;BME280;47274;43.054;25.146;2023-05-19T11:24:44;95854.91;;;25.11;53.41
61408;BME280;47274;43.054;25.146;2023-05-19T11:27:32;95843.69;;;24.92;50.49
61408;BME280;47274;43.054;25.146;2023-05-19T11:29:59;95838.06;;;24.53;54.58
61408;BME280;47274;43.054;25.146;2023-05-19T11:32:31;95832.38;;;24.80;54.05
61408;BME280;47274;43.054;25.146;2023-05-19T11:35:03;95824.63;;;24.73;54.12
61408;BME280;47274;43.054;25.146;2023-05-19T11:37:32;95840.72;;;24.77;51.35
61408;BME280;47274;43.054;25.146;2023-05-19T11:40:03;95838.84;;;24.42;49.25
61408;BME280;47274;43.054;25.146;2023-05-19T11:42:32;95839.56;;;24.85;51.60
61408;BME280;47274;43.054;25.146;2023-05-19T11:45:00;95830.91;;;24.96;52.71
61408;BME280;47274;43.054;25.146;2023-05-19T11:47:26;95828.38;;;25.01;52.12
61408;BME280;47274;43.054;25.146;2023-05-19T11:49:53;95826.22;;;24.98;50.36
61408;BME280;47274;43.054;25.146;2023-05-19T11:52:24;95829.75;;;24.92;51.70
61408;BME280;47274;43.054;25.146;2023-05-19T11:54:49;95827.94;;;25.16;54.93
61408;BME280;47274;43.054;25.146;2023-05-19T11:57:16;95826.78;;;25.35;52.30
61408;BME280;47274;43.054;25.146;2023-05-19T11:59:42;95824.75;;;25.14;50.09
61408;BME280;47274;43.054;25.146;2023-05-19T12:02:20;95821.53;;;25.00;50.67
61408;BME280;47274;43.054;25.146;2023-05-19T12:04:47;95812.19;;;25.16;50.47
61408;BME280;47274;43.054;25.146;2023-05-19T12:07:23;95806.47;;;24.95;50.21
61408;BME280;47274;43.054;25.146;2023-05-19T12:09:50;95794.78;;;24.32;54.62
61408;BME280;47274;43.054;25.146;2023-05-19T12:12:18;95794.69;;;24.39;52.01
61408;BME280;47274;43.054;25.146;2023-05-19T12:14:50;95791.72;;;24.35;52.76
61408;BME280;47274;43.054;25.146;2023-05-19T12:17:18;95793.72;;;24.52;51.34
61408;BME280;47274;43.054;25.146;2023-05-19T12:19:48;95794.97;;;24.73;53.97
61408;BME280;47274;43.054;25.146;2023-05-19T12:22:15;95792.22;;;24.56;50.83
61408;BME280;47274;43.054;25.146;2023-05-19T12:24:42;95784.44;;;24.85;51.24
61408;BME280;47274;43.054;25.146;2023-05-19T12:27:23;95773.63;;;24.93;48.88
61408;BME280;47274;43.054;25.146;2023-05-19T12:29:53;95789.81;;;25.13;52.10
61408;BME280;47274;43.054;25.146;2023-05-19T12:32:26;95801.13;;;24.67;50.51
61408;BME280;47274;43.054;25.146;2023-05-19T12:34:55;95796.22;;;23.56;52.72
61408;BME280;47274;43.054;25.146;2023-05-19T12:37:23;95785.28;;;22.67;54.38
61408;BME280;47274;43.054;25.146;2023-05-19T12:39:50;95779.97;;;23.17;52.47
61408;BME280;47274;43.054;25.146;2023-05-19T12:42:16;95795.00;;;23.40;51.86
61408;BME280;47274;43.054;25.146;2023-05-19T12:44:49;95796.31;;;23.98;53.55
61408;BME280;47274;43.054;25.146;2023-05-19T12:47:18;95780.88;;;23.60;53.00
61408;BME280;47274;43.054;25.146;2023-05-19T12:50:00;95785.72;;;23.75;51.25
61408;BME280;47274;43.054;25.146;2023-05-19T12:52:28;95789.22;;;23.99;51.56
61408;BME280;47274;43.054;25.146;2023-05-19T12:57:25;95789.03;;;24.12;48.32
61408;BME280;47274;43.054;25.146;2023-05-19T12:59:51;95782.63;;;23.66;50.10
61408;BME280;47274;43.054;25.146;2023-05-19T13:02:18;95790.53;;;23.78;50.10
61408;BME280;47274;43.054;25.146;2023-05-19T13:04:44;95788.19;;;23.88;51.57
61408;BME280;47274;43.054;25.146;2023-05-19T13:07:10;95784.56;;;24.01;53.08
61408;BME280;47274;43.054;25.146;2023-05-19T13:09:35;95796.66;;;23.53;52.38
61408;BME280;47274;43.054;25.146;2023-05-19T13:12:02;95794.13;;;22.91;52.42
61408;BME280;47274;43.054;25.146;2023-05-19T13:14:29;95784.09;;;23.07;55.63
61408;BME280;47274;43.054;25.146;2023-05-19T13:16:54;95788.97;;;23.88;52.33
61408;BME280;47274;43.054;25.146;2023-05-19T13:19:20;95784.47;;;24.07;49.94
61408;BME280;47274;43.054;25.146;2023-05-19T13:21:46;95780.94;;;24.13;49.47